Denver, Colorado
Traffic Map
Current Weather Conditions
Denver, Colorado
Scattered Clouds
Scattered Clouds
90°
Feels Like: 90°
Wind Chill: 90° Ceiling: Unl
Heat Index: 90° Visibility: 10mi
Dew Point: 41° Wind: 10mph
Humidity: 18% Direction: 80° (E)
Pressure: 29.95in Gusts: 18mph
Raw Report DataKDEN 182053Z 08009G16KT 10SM FEW110 SCT140 32/05 A2995 RMK AO2 SLP055 T03220050 56028
Traffic Incident Summary
Active as of:
Severity:
Category:
InformationThere was an issue retrieving the traffic information for this location. Please try a different location or try again shortly.
Advertisements